Time;durP1;ratioP1;P1;durP2;ratioP2;P2;SDS_P1;SDS_P2;PMS_P1;PMS_P2;Temp;Humidity;BMP_temperature;BMP_pressure;BME280_temperature;BME280_humidity;BME280_pressure;Samples;Min_cycle;Max_cycle;Signal;HPM_P1;HPM_P2
2022/01/01 00:00:29;;;;;;;66.20;59.50;;;;;;;6.32;72.90;95362.28;5057068;28;20193;-65
2022/01/01 00:02:57;;;;;;;70.38;63.17;;;;;;;6.28;72.34;95361.28;5039531;28;20545;-65
2022/01/01 00:05:24;;;;;;;73.72;66.32;;;;;;;6.25;72.89;95360.00;5039344;28;20201;-65
2022/01/01 00:07:51;;;;;;;72.18;64.75;;;;;;;6.24;72.94;95357.56;5056839;28;20182;-65
2022/01/01 00:10:19;;;;;;;76.13;68.63;;;;;;;6.21;72.53;95350.81;5039176;28;20228;-65
2022/01/01 00:12:47;;;;;;;77.72;69.90;;;;;;;6.17;72.74;95351.72;5056700;28;20209;-64
2022/01/01 00:15:14;;;;;;;77.75;69.85;;;;;;;6.14;72.86;95352.41;5038942;28;20237;-64
2022/01/01 00:17:41;;;;;;;90.35;81.55;;;;;;;6.14;72.67;95344.19;5039258;28;20546;-64
2022/01/01 00:20:11;;;;;;;87.32;78.47;;;;;;;6.07;72.67;95339.16;5056603;28;20602;-64
2022/01/01 00:22:38;;;;;;;91.05;82.18;;;;;;;6.02;72.44;95342.81;5039047;28;20198;-64
2022/01/01 00:25:06;;;;;;;86.00;77.35;;;;;;;5.98;73.01;95341.06;5038830;28;20194;-64
2022/01/01 00:27:33;;;;;;;94.70;85.32;;;;;;;5.98;73.07;95341.84;5056043;28;20511;-64
2022/01/01 00:30:00;;;;;;;94.78;85.20;;;;;;;5.97;72.69;95337.50;5038486;28;20217;-64
2022/01/01 00:32:27;;;;;;;97.68;87.90;;;;;;;5.97;72.85;95336.72;5056754;28;20186;-65
2022/01/01 00:34:53;;;;;;;102.68;92.65;;;;;;;5.90;72.23;95353.56;5038610;28;20200;-65
2022/01/01 00:37:21;;;;;;;109.50;98.28;;;;;;;5.82;72.43;95345.31;5056175;28;20193;-65
2022/01/01 00:39:48;;;;;;;108.95;98.18;;;;;;;5.73;72.58;95353.47;5056107;28;20191;-65
2022/01/01 00:42:15;;;;;;;111.28;100.50;;;;;;;5.70;72.62;95354.09;5056197;28;20209;-65
2022/01/01 00:44:42;;;;;;;104.85;94.65;;;;;;;5.67;72.80;95346.53;5038903;28;20201;-65
2022/01/01 00:47:09;;;;;;;123.20;110.80;;;;;;;5.63;72.03;95348.28;5055984;28;20197;-65
2022/01/01 00:49:35;;;;;;;127.55;114.15;;;;;;;5.58;72.54;95340.22;5055681;28;20202;-65
2022/01/01 00:52:02;;;;;;;133.65;120.03;;;;;;;5.56;72.28;95326.84;5055716;28;20210;-65
2022/01/01 00:54:31;;;;;;;125.65;112.57;;;;;;;5.55;72.41;95336.16;5038673;28;20198;-65
2022/01/01 00:56:57;;;;;;;119.45;107.65;;;;;;;5.54;72.45;95329.09;5038558;28;20534;-65
2022/01/01 00:59:25;;;;;;;107.50;96.72;;;;;;;5.53;72.39;95328.28;5055814;28;20181;-65
2022/01/01 01:01:52;;;;;;;128.27;115.30;;;;;;;5.52;71.91;95323.94;5056032;28;20265;-65
2022/01/01 01:04:19;;;;;;;106.32;95.63;;;;;;;5.47;72.33;95326.00;5055834;28;20178;-65
2022/01/01 01:06:46;;;;;;;101.25;91.00;;;;;;;5.45;72.48;95317.31;5054879;28;20198;-65
2022/01/01 01:09:13;;;;;;;101.20;90.90;;;;;;;5.42;72.71;95320.66;5055509;28;20224;-65
2022/01/01 01:11:45;;;;;;;105.57;94.93;;;;;;;5.37;72.29;95312.56;5038302;28;20197;-65
2022/01/01 01:14:19;;;;;;;112.38;100.90;;;;;;;5.32;72.75;95308.06;5055816;28;20256;-65
2022/01/01 01:16:46;;;;;;;120.68;108.13;;;;;;;5.34;72.91;95305.00;5055225;28;20233;-65
2022/01/01 01:19:13;;;;;;;101.90;91.50;;;;;;;5.33;72.94;95309.66;5054491;28;20198;-65
2022/01/01 01:21:40;;;;;;;95.90;86.38;;;;;;;5.30;72.72;95311.13;5037745;28;20206;-65
2022/01/01 01:24:07;;;;;;;113.65;102.38;;;;;;;5.29;72.76;95308.69;5055531;28;20295;-65
2022/01/01 01:26:34;;;;;;;102.70;92.25;;;;;;;5.26;72.49;95323.78;5037988;28;20198;-65
2022/01/01 01:29:04;;;;;;;123.95;111.57;;;;;;;5.26;72.45;95323.78;5055205;28;20210;-65
2022/01/01 01:31:31;;;;;;;148.10;132.82;;;;;;;5.18;72.07;95332.75;5055231;28;20277;-65
2022/01/01 01:33:58;;;;;;;143.57;128.75;;;;;;;5.08;71.93;95335.72;5054985;28;20197;-65
2022/01/01 01:36:25;;;;;;;136.15;122.13;;;;;;;5.01;72.42;95336.19;5054980;28;20540;-65
2022/01/01 01:38:51;;;;;;;113.05;101.65;;;;;;;5.01;73.02;95340.81;5037089;28;20613;-65
2022/01/01 01:41:18;;;;;;;89.38;80.20;;;;;;;5.12;73.34;95335.91;5055096;28;20197;-65
2022/01/01 01:43:46;;;;;;;86.03;77.45;;;;;;;5.20;73.66;95337.91;5054270;28;20201;-64
2022/01/01 01:46:14;;;;;;;84.10;75.38;;;;;;;5.27;74.09;95330.88;5037646;28;20204;-64
2022/01/01 01:48:43;;;;;;;83.53;75.15;;;;;;;5.31;73.42;95326.41;5037587;28;20212;-64
2022/01/01 01:51:11;;;;;;;71.75;64.45;;;;;;;5.40;74.06;95326.44;5037657;28;20292;-64
2022/01/01 01:53:40;;;;;;;77.10;69.22;;;;;;;5.42;73.51;95321.47;5055012;28;20185;-65
2022/01/01 01:56:06;;;;;;;84.43;75.90;;;;;;;5.39;73.12;95330.28;5055059;28;20197;-65
2022/01/01 01:58:34;;;;;;;89.70;80.40;;;;;;;5.27;73.05;95321.88;5054712;28;20196;-65
2022/01/01 02:01:20;;;;;;;111.93;100.45;;;;;;;5.13;72.21;95323.88;5054071;28;20553;-65
2022/01/01 02:03:49;;;;;;;115.70;103.65;;;;;;;5.05;73.11;95323.50;5055039;28;20255;-65
2022/01/01 02:06:16;;;;;;;119.05;107.25;;;;;;;5.01;72.96;95303.38;5037632;28;20208;-65
2022/01/01 02:08:44;;;;;;;123.93;110.68;;;;;;;4.92;72.33;95304.44;5037491;28;20594;-65
2022/01/01 02:11:11;;;;;;;118.82;106.53;;;;;;;4.92;72.96;95293.50;5037257;28;20190;-65
2022/01/01 02:13:49;;;;;;;116.72;104.40;;;;;;;4.92;73.21;95304.44;5054632;28;20606;-65
2022/01/01 02:16:31;;;;;;;104.45;93.93;;;;;;;4.96;73.70;95308.16;5054348;28;20233;-65
2022/01/01 02:19:00;;;;;;;109.90;98.57;;;;;;;4.97;73.52;95309.75;5037372;28;20577;-65
2022/01/01 02:21:28;;;;;;;101.35;90.72;;;;;;;5.00;73.22;95309.16;5053975;28;20213;-65
2022/01/01 02:23:58;;;;;;;94.85;85.35;;;;;;;4.94;73.64;95302.19;5054702;28;20186;-65
2022/01/01 02:26:32;;;;;;;96.80;87.00;;;;;;;4.94;73.85;95307.66;5054914;28;20209;-65
2022/01/01 02:29:00;;;;;;;90.65;81.35;;;;;;;4.95;73.64;95306.56;5054667;28;20190;-65
2022/01/01 02:31:27;;;;;;;76.63;68.80;;;;;;;4.96;73.98;95308.97;5054588;28;20193;-65
2022/01/01 02:33:54;;;;;;;74.65;66.90;;;;;;;4.98;74.11;95303.19;5037712;28;20201;-65
2022/01/01 02:36:36;;;;;;;72.25;64.55;;;;;;;5.01;73.74;95306.13;5054533;28;20174;-65
2022/01/01 02:39:11;;;;;;;70.70;63.33;;;;;;;5.02;73.80;95296.78;5054623;28;20194;-66
2022/01/01 02:41:38;;;;;;;72.20;64.57;;;;;;;5.07;74.13;95290.38;5037343;28;20200;-65
2022/01/01 02:44:06;;;;;;;81.22;72.93;;;;;;;5.03;73.35;95294.84;5054630;28;20182;-65
2022/01/01 02:46:33;;;;;;;81.82;73.20;;;;;;;4.94;72.93;95285.78;5054750;28;20248;-65
2022/01/01 02:49:00;;;;;;;79.80;72.00;;;;;;;4.87;73.29;95285.44;5054163;28;20206;-65
2022/01/01 02:51:27;;;;;;;78.20;70.20;;;;;;;4.84;73.13;95292.31;5058214;28;20204;-65
2022/01/01 02:53:55;;;;;;;77.40;69.43;;;;;;;4.78;72.72;95294.38;5040914;28;20208;-65
2022/01/01 02:56:22;;;;;;;73.20;65.75;;;;;;;4.70;72.67;95283.38;5058504;28;20185;-65
2022/01/01 02:58:48;;;;;;;73.30;65.68;;;;;;;4.69;72.96;95279.03;5058132;28;20189;-65
2022/01/01 03:01:15;;;;;;;72.18;64.82;;;;;;;4.63;72.75;95281.06;5057734;28;20190;-65
2022/01/01 03:03:42;;;;;;;71.35;64.07;;;;;;;4.58;73.15;95271.09;5058130;28;20515;-66
2022/01/01 03:06:09;;;;;;;77.70;70.00;;;;;;;4.59;73.17;95260.97;5058126;28;20205;-65
2022/01/01 03:08:36;;;;;;;72.50;65.32;;;;;;;4.56;73.29;95267.84;5057849;28;20212;-66
2022/01/01 03:11:05;;;;;;;76.75;68.97;;;;;;;4.54;73.73;95267.38;5057954;28;20213;-65
2022/01/01 03:13:32;;;;;;;78.13;70.25;;;;;;;4.54;73.16;95259.16;5040259;28;20227;-65
2022/01/01 03:15:59;;;;;;;74.70;67.18;;;;;;;4.44;72.80;95253.94;5057418;28;20248;-65
2022/01/01 03:18:26;;;;;;;72.15;64.93;;;;;;;4.41;72.79;95260.03;5057613;28;20186;-65
2022/01/01 03:20:52;;;;;;;73.53;66.00;;;;;;;4.42;73.01;95264.34;5057712;28;20182;-65
2022/01/01 03:23:19;;;;;;;75.47;67.72;;;;;;;4.40;73.35;95258.41;5040219;28;20202;-65
2022/01/01 03:25:46;;;;;;;73.65;66.15;;;;;;;4.36;73.18;95260.16;5057773;28;20213;-65
2022/01/01 03:28:14;;;;;;;74.13;66.75;;;;;;;4.31;73.68;95260.25;5057614;28;20209;-66
2022/01/01 03:30:41;;;;;;;74.57;66.97;;;;;;;4.36;74.06;95262.88;5057208;28;20545;-66
2022/01/01 03:33:08;;;;;;;72.47;65.25;;;;;;;4.45;74.01;95271.94;5057169;28;20186;-66
2022/01/01 03:35:34;;;;;;;71.40;63.90;;;;;;;4.47;73.97;95264.25;5039938;28;20201;-66
2022/01/01 03:38:01;;;;;;;71.38;64.20;;;;;;;4.54;73.99;95264.63;5057425;28;20186;-66
2022/01/01 03:40:28;;;;;;;70.10;62.97;;;;;;;4.57;73.83;95264.00;5057397;28;20178;-66
2022/01/01 03:42:55;;;;;;;68.22;61.42;;;;;;;4.63;74.05;95274.81;5039851;28;20202;-66
2022/01/01 03:45:23;;;;;;;67.00;60.13;;;;;;;4.65;74.15;95273.38;5057316;28;20181;-66
2022/01/01 03:47:50;;;;;;;67.05;60.22;;;;;;;4.69;74.51;95268.91;5039874;28;20197;-66
2022/01/01 03:50:17;;;;;;;64.57;57.97;;;;;;;4.79;74.32;95270.56;5039962;28;20271;-66
2022/01/01 03:52:44;;;;;;;61.60;55.00;;;;;;;4.82;74.36;95270.75;5039306;28;20629;-66
2022/01/01 03:55:12;;;;;;;64.68;58.20;;;;;;;4.82;74.54;95267.22;5039586;28;20215;-66
2022/01/01 03:57:38;;;;;;;67.07;60.08;;;;;;;4.76;73.62;95252.09;5057483;28;20196;-65
2022/01/01 04:00:07;;;;;;;60.22;54.10;;;;;;;4.66;73.67;95255.06;5056712;28;20170;-66
2022/01/01 04:02:35;;;;;;;59.85;53.47;;;;;;;4.61;73.19;95246.97;5055962;28;20193;-65
2022/01/01 04:05:03;;;;;;;63.38;57.08;;;;;;;4.51;73.36;95245.31;5056573;28;20178;-66
2022/01/01 04:07:30;;;;;;;59.45;53.38;;;;;;;4.47;73.80;95238.88;5056570;28;20510;-65
2022/01/01 04:09:57;;;;;;;60.17;53.97;;;;;;;4.49;74.26;95247.53;5056792;28;20217;-65
2022/01/01 04:12:24;;;;;;;61.35;54.97;;;;;;;4.63;74.23;95236.56;5056859;28;20186;-65
2022/01/01 04:15:11;;;;;;;63.05;56.45;;;;;;;4.71;74.50;95219.41;5053928;28;20245;-65
2022/01/01 04:18:06;;;;;;;64.60;57.75;;;;;;;4.79;75.01;95224.13;5056312;28;20212;-65
2022/01/01 04:20:52;;;;;;;65.30;58.40;;;;;;;4.93;75.08;95226.78;5056343;28;20202;-65
2022/01/01 04:23:40;;;;;;;59.70;53.60;;;;;;;5.04;75.60;95208.97;5053806;28;20208;-65
2022/01/01 04:26:08;;;;;;;60.83;54.53;;;;;;;5.16;75.57;95209.22;5038938;28;20205;-65
2022/01/01 04:28:35;;;;;;;65.57;58.53;;;;;;;5.10;74.32;95206.94;5056461;28;20181;-65
2022/01/01 04:31:01;;;;;;;73.97;66.20;;;;;;;4.91;73.48;95205.22;5038404;28;20217;-66
2022/01/01 04:33:30;;;;;;;79.03;70.95;;;;;;;4.80;74.47;95220.28;5038848;28;20197;-65
2022/01/01 04:35:56;;;;;;;75.60;67.72;;;;;;;4.73;74.38;95217.19;5055081;28;20202;-65
2022/01/01 04:38:35;;;;;;;78.90;70.80;;;;;;;4.71;74.87;95222.16;5056003;28;20186;-65
2022/01/01 04:41:03;;;;;;;73.28;65.72;;;;;;;4.78;74.85;95206.91;5056139;28;20177;-65
2022/01/01 04:43:29;;;;;;;70.38;62.92;;;;;;;4.86;75.16;95216.28;5038728;28;20232;-65
2022/01/01 04:45:56;;;;;;;68.10;60.97;;;;;;;4.88;75.33;95205.06;5038598;28;20198;-65
2022/01/01 04:48:23;;;;;;;69.13;61.92;;;;;;;4.93;75.34;95218.56;5056052;28;20617;-65
2022/01/01 04:50:51;;;;;;;71.45;64.15;;;;;;;4.98;75.27;95216.53;5055714;28;20219;-65
2022/01/01 04:53:39;;;;;;;69.45;62.15;;;;;;;5.04;75.64;95217.19;5038233;28;20212;-65
2022/01/01 04:56:07;;;;;;;68.72;61.38;;;;;;;5.06;75.16;95202.09;5038388;28;20198;-65
2022/01/01 04:58:34;;;;;;;65.38;58.65;;;;;;;5.04;75.55;95192.56;5055585;28;20178;-65
2022/01/01 05:01:01;;;;;;;70.80;63.50;;;;;;;5.09;75.85;95191.66;5055804;28;20181;-65
2022/01/01 05:03:28;;;;;;;69.18;62.08;;;;;;;5.09;75.97;95186.19;5038349;28;20320;-65
2022/01/01 05:05:56;;;;;;;65.03;58.22;;;;;;;5.05;75.36;95195.00;5055760;28;20182;-65
2022/01/01 05:08:23;;;;;;;66.15;59.35;;;;;;;5.05;75.82;95207.88;5055741;28;20200;-65
2022/01/01 05:10:50;;;;;;;65.00;58.20;;;;;;;5.06;76.11;95226.69;5055510;28;20209;-66
2022/01/01 05:13:18;;;;;;;64.30;57.50;;;;;;;5.11;75.81;95236.69;5055624;28;20196;-66
2022/01/01 05:15:45;;;;;;;63.58;57.00;;;;;;;5.12;75.90;95232.84;5055339;28;20241;-64
2022/01/01 05:18:13;;;;;;;63.65;57.33;;;;;;;5.14;75.99;95241.53;5054924;28;20215;-65
2022/01/01 05:20:39;;;;;;;68.22;61.20;;;;;;;5.18;76.19;95245.25;5055352;28;20261;-62
2022/01/01 05:23:08;;;;;;;65.30;58.47;;;;;;;5.22;75.90;95231.75;5037996;28;20201;-62
2022/01/01 05:25:35;;;;;;;63.47;57.08;;;;;;;5.26;75.98;95239.00;5054232;28;20206;-62
2022/01/01 05:28:01;;;;;;;64.40;57.70;;;;;;;5.28;75.90;95242.25;5055363;28;20178;-62
2022/01/01 05:30:28;;;;;;;63.05;56.63;;;;;;;5.31;75.86;95247.09;5037500;28;20704;-62
2022/01/01 05:32:55;;;;;;;61.92;55.60;;;;;;;5.30;75.62;95259.16;5037798;28;20201;-62
2022/01/01 05:35:22;;;;;;;59.10;53.00;;;;;;;5.25;75.63;95266.66;5055061;28;20192;-64
2022/01/01 05:37:48;;;;;;;60.65;54.45;;;;;;;5.24;75.77;95265.88;5037771;28;20216;-64
2022/01/01 05:40:17;;;;;;;57.90;52.17;;;;;;;5.24;75.70;95270.53;5055232;28;20177;-64
2022/01/01 05:42:44;;;;;;;57.00;51.03;;;;;;;5.23;76.21;95283.41;5055143;28;20204;-64
2022/01/01 05:45:11;;;;;;;57.33;51.45;;;;;;;5.22;75.96;95280.97;5055136;28;20209;-64
2022/01/01 05:47:37;;;;;;;57.33;51.53;;;;;;;5.24;75.55;95279.53;5054866;28;20204;-64
2022/01/01 05:50:05;;;;;;;67.13;60.20;;;;;;;5.20;75.75;95281.28;5055051;28;20190;-64
2022/01/01 05:52:32;;;;;;;72.10;64.72;;;;;;;5.11;75.09;95276.88;5055013;28;20190;-64
2022/01/01 05:54:59;;;;;;;74.75;67.03;;;;;;;5.05;75.14;95268.03;5055252;28;20200;-64
2022/01/01 05:57:27;;;;;;;75.65;67.50;;;;;;;5.00;76.04;95259.94;5037540;28;20198;-64
2022/01/01 05:59:53;;;;;;;67.10;60.17;;;;;;;5.01;75.66;95265.09;5037741;28;20208;-64
2022/01/01 06:02:20;;;;;;;62.65;55.88;;;;;;;5.04;75.84;95261.72;5054719;28;20196;-62
2022/01/01 06:04:47;;;;;;;61.28;55.00;;;;;;;5.05;75.86;95252.44;5037120;28;20201;-62
2022/01/01 06:07:14;;;;;;;56.92;51.15;;;;;;;5.09;75.63;95252.59;5055095;28;20193;-62
2022/01/01 06:09:41;;;;;;;52.72;47.25;;;;;;;5.18;75.85;95249.91;5054514;28;20212;-62
2022/01/01 06:12:08;;;;;;;29.85;26.80;;;;;;;5.28;76.70;95255.09;5037485;28;20224;-63
2022/01/01 06:14:36;;;;;;;39.38;35.60;;;;;;;5.36;76.58;95243.41;5054806;28;20200;-63
2022/01/01 06:17:04;;;;;;;55.38;49.75;;;;;;;5.35;75.72;95243.72;5053460;28;20233;-63
2022/01/01 06:19:30;;;;;;;54.88;49.38;;;;;;;5.28;75.26;95257.84;5054628;28;20190;-63
2022/01/01 06:21:57;;;;;;;53.90;48.28;;;;;;;5.22;75.62;95257.16;5037521;28;20192;-63
2022/01/01 06:24:24;;;;;;;41.88;37.85;;;;;;;5.17;75.77;95260.03;5038256;28;20190;-63
2022/01/01 06:26:51;;;;;;;38.10;34.38;;;;;;;5.14;75.96;95254.41;5041157;28;20564;-63
2022/01/01 06:29:17;;;;;;;40.58;36.55;;;;;;;5.12;76.01;95248.41;5041383;28;20255;-63
2022/01/01 06:31:46;;;;;;;40.97;37.08;;;;;;;5.06;75.33;95248.56;5058257;28;20526;-63
2022/01/01 06:34:12;;;;;;;39.85;36.15;;;;;;;5.03;75.34;95264.78;5058445;28;20193;-63
2022/01/01 06:36:39;;;;;;;38.35;34.67;;;;;;;5.04;75.79;95261.72;5041027;28;20204;-63
2022/01/01 06:39:06;;;;;;;35.78;32.47;;;;;;;5.15;75.94;95269.66;5041347;28;20535;-63
2022/01/01 06:41:33;;;;;;;35.45;32.08;;;;;;;5.24;76.27;95278.75;5058305;28;20178;-63
2022/01/01 06:44:00;;;;;;;33.22;30.05;;;;;;;5.30;76.17;95281.03;5040959;28;20217;-62
2022/01/01 06:46:26;;;;;;;30.60;27.70;;;;;;;5.38;76.19;95270.44;5058370;28;20193;-63
2022/01/01 06:48:55;;;;;;;32.17;28.88;;;;;;;5.45;76.48;95271.59;5058351;28;20197;-63
2022/01/01 06:51:21;;;;;;;31.55;28.30;;;;;;;5.51;76.04;95275.78;5057348;28;20217;-63
2022/01/01 06:53:48;;;;;;;36.10;32.47;;;;;;;5.56;76.37;95274.88;5058143;28;20629;-63
2022/01/01 06:56:15;;;;;;;41.13;36.83;;;;;;;5.59;76.46;95274.22;5040813;28;20504;-62
2022/01/01 06:58:42;;;;;;;44.13;39.38;;;;;;;5.60;76.61;95284.06;5040583;28;20198;-63
2022/01/01 07:01:08;;;;;;;52.15;46.67;;;;;;;5.60;76.47;95272.31;5040612;28;20219;-63
2022/01/01 07:03:35;;;;;;;55.65;49.75;;;;;;;5.58;77.04;95269.88;5057580;28;20212;-63
2022/01/01 07:06:03;;;;;;;63.47;57.03;;;;;;;5.61;76.60;95277.44;5057952;28;20201;-63
2022/01/01 07:08:30;;;;;;;63.13;56.63;;;;;;;5.61;76.55;95276.66;5040479;28;20224;-67
2022/01/01 07:10:57;;;;;;;62.67;56.22;;;;;;;5.62;76.77;95287.28;5040761;28;20221;-62
2022/01/01 07:13:24;;;;;;;64.47;57.95;;;;;;;5.66;77.12;95290.97;5057258;28;20576;-64
2022/01/01 07:15:51;;;;;;;62.47;55.78;;;;;;;5.74;76.68;95294.91;5056956;28;20238;-63
2022/01/01 07:18:18;;;;;;;60.95;54.55;;;;;;;5.78;76.89;95293.94;5056966;28;20201;-64
2022/01/01 07:20:45;;;;;;;60.90;54.60;;;;;;;5.80;76.72;95282.66;5040940;28;20209;-65
2022/01/01 07:23:13;;;;;;;59.42;53.00;;;;;;;5.86;76.99;95297.03;5040093;28;20201;-66
2022/01/01 07:25:40;;;;;;;58.08;51.88;;;;;;;5.96;76.73;95305.00;5057471;28;20190;-64
2022/01/01 07:28:07;;;;;;;60.80;54.55;;;;;;;6.02;76.58;95295.47;5057350;28;20518;-64
2022/01/01 07:30:34;;;;;;;63.25;56.88;;;;;;;6.03;76.51;95286.16;5057278;28;20196;-61
2022/01/01 07:33:01;;;;;;;62.08;55.67;;;;;;;6.12;76.70;95294.38;5057259;28;20210;-61
2022/01/01 07:35:28;;;;;;;63.22;56.70;;;;;;;6.22;76.29;95299.56;5055988;28;20190;-61
2022/01/01 07:37:54;;;;;;;64.47;57.75;;;;;;;6.35;76.04;95300.53;5040196;28;20496;-61
2022/01/01 07:40:24;;;;;;;60.20;53.88;;;;;;;6.53;75.95;95310.38;5057446;28;20189;-62
2022/01/01 07:42:50;;;;;;;59.85;53.95;;;;;;;6.72;75.89;95310.91;5057012;28;20193;-61
2022/01/01 07:45:17;;;;;;;56.42;50.53;;;;;;;6.96;75.50;95315.06;5057800;28;20186;-62
2022/01/01 07:47:44;;;;;;;32.80;29.48;;;;;;;7.24;75.12;95305.34;5057351;28;20198;-61
2022/01/01 07:50:11;;;;;;;23.95;21.45;;;;;;;7.52;74.93;95312.41;5039905;28;20210;-62
2022/01/01 07:52:38;;;;;;;13.95;12.63;;;;;;;7.78;74.81;95306.81;5057087;28;20237;-62
2022/01/01 07:55:06;;;;;;;11.10;9.98;;;;;;;8.01;74.22;95308.16;5056832;28;20537;-62
2022/01/01 07:57:34;;;;;;;10.02;9.02;;;;;;;8.21;73.54;95295.63;5039657;28;20204;-62
2022/01/01 08:00:01;;;;;;;8.25;7.55;;;;;;;8.38;72.89;95297.47;5057055;28;20190;-62
2022/01/01 08:02:28;;;;;;;9.60;8.80;;;;;;;8.53;72.82;95293.34;5056997;28;20186;-62
2022/01/01 08:04:55;;;;;;;9.43;8.40;;;;;;;8.67;72.87;95297.44;5039771;28;20212;-64
2022/01/01 08:07:22;;;;;;;9.98;9.07;;;;;;;8.86;74.06;95296.97;5056763;28;20182;-64
2022/01/01 08:09:48;;;;;;;9.45;8.55;;;;;;;9.06;74.61;95305.53;5056559;28;20540;-64
2022/01/01 08:12:15;;;;;;;8.90;8.10;;;;;;;9.21;73.79;95293.91;5056720;28;20213;-63
2022/01/01 08:14:43;;;;;;;6.15;5.55;;;;;;;9.34;73.10;95298.31;5056687;28;20193;-61
2022/01/01 08:17:10;;;;;;;4.80;4.40;;;;;;;9.48;71.31;95302.72;5056949;28;20252;-64
2022/01/01 08:19:38;;;;;;;2.35;2.15;;;;;;;9.60;69.64;95306.28;5057515;28;20197;-65
2022/01/01 08:22:05;;;;;;;2.40;2.20;;;;;;;9.70;69.60;95301.50;5039283;28;20267;-65
2022/01/01 08:24:32;;;;;;;2.53;2.17;;;;;;;9.76;68.51;95302.88;5056608;28;20177;-62
2022/01/01 08:27:01;;;;;;;2.40;2.20;;;;;;;9.83;68.34;95308.63;5056534;28;20196;-64
2022/01/01 08:29:29;;;;;;;2.30;2.20;;;;;;;9.88;68.45;95314.72;5056244;28;20249;-64
2022/01/01 08:31:57;;;;;;;2.20;2.00;;;;;;;9.93;68.52;95301.88;5038964;28;20221;-63
2022/01/01 08:34:24;;;;;;;2.35;2.15;;;;;;;9.98;68.59;95309.91;5056335;28;20205;-69
2022/01/01 08:36:51;;;;;;;2.65;2.45;;;;;;;10.05;68.27;95301.88;5056339;28;20196;-62
2022/01/01 08:39:18;;;;;;;2.85;2.65;;;;;;;10.18;68.52;95308.22;5038438;28;20534;-61
2022/01/01 08:41:45;;;;;;;2.03;1.92;;;;;;;10.39;68.53;95314.44;5038907;28;20204;-63
2022/01/01 08:44:12;;;;;;;2.30;2.10;;;;;;;10.51;67.18;95319.94;5055912;28;20226;-62
2022/01/01 08:46:39;;;;;;;2.60;2.40;;;;;;;10.64;66.84;95312.47;5055650;28;20189;-61
2022/01/01 08:49:07;;;;;;;2.30;2.10;;;;;;;10.69;66.45;95308.66;5038664;28;20201;-63
2022/01/01 08:51:35;;;;;;;2.25;2.05;;;;;;;10.72;66.03;95319.81;5038537;28;20228;-63
2022/01/01 08:54:02;;;;;;;2.50;2.30;;;;;;;10.79;65.48;95317.25;5038487;28;20204;-65
2022/01/01 08:56:29;;;;;;;2.58;2.38;;;;;;;10.87;65.16;95314.72;5038428;28;20201;-65
2022/01/01 08:58:56;;;;;;;2.45;2.25;;;;;;;10.89;65.22;95307.66;5056009;28;20201;-65
2022/01/01 09:01:23;;;;;;;2.00;1.90;;;;;;;10.97;65.14;95317.00;5038543;28;20208;-65
2022/01/01 09:03:50;;;;;;;2.15;2.05;;;;;;;11.06;65.05;95323.97;5055618;28;20212;-63
2022/01/01 09:06:18;;;;;;;2.15;2.00;;;;;;;11.14;64.89;95333.25;5055794;28;20204;-63
2022/01/01 09:08:45;;;;;;;2.63;2.42;;;;;;;11.22;64.39;95334.25;5038272;28;20220;-63
2022/01/01 09:11:13;;;;;;;2.40;2.20;;;;;;;11.38;63.83;95334.31;5055881;28;20193;-63
2022/01/01 09:13:42;;;;;;;2.50;2.20;;;;;;;11.55;63.46;95326.53;5038213;28;20212;-64
2022/01/01 09:16:10;;;;;;;2.70;2.50;;;;;;;11.82;61.44;95321.31;5055242;28;20241;-65
2022/01/01 09:18:38;;;;;;;2.90;2.60;;;;;;;11.88;61.05;95325.47;5055187;28;20193;-65
2022/01/01 09:21:05;;;;;;;2.88;2.58;;;;;;;11.95;61.33;95336.72;5055914;28;20186;-66
2022/01/01 09:23:33;;;;;;;2.90;2.70;;;;;;;12.17;60.87;95346.34;5055584;28;20190;-66
2022/01/01 09:26:01;;;;;;;4.15;3.03;;;;;;;12.43;60.24;95329.22;5038071;28;20209;-66
2022/01/01 09:28:28;;;;;;;3.47;2.97;;;;;;;12.73;60.29;95334.25;5055648;28;20193;-65
2022/01/01 09:30:55;;;;;;;3.50;3.20;;;;;;;12.97;59.66;95339.56;5037883;28;20196;-66
2022/01/01 09:33:22;;;;;;;3.80;3.40;;;;;;;13.12;59.36;95334.34;5037759;28;20217;-64
2022/01/01 09:35:49;;;;;;;3.83;3.05;;;;;;;13.08;58.69;95345.34;5055582;28;20185;-63
2022/01/01 09:38:15;;;;;;;3.60;3.30;;;;;;;13.12;60.19;95337.09;5055437;28;20189;-62
2022/01/01 09:40:44;;;;;;;2.97;2.78;;;;;;;13.08;58.35;95345.34;5055296;28;20204;-62
2022/01/01 09:43:11;;;;;;;3.30;3.00;;;;;;;12.96;58.00;95349.03;5055125;28;20189;-63
2022/01/01 09:45:40;;;;;;;4.25;3.65;;;;;;;12.85;58.58;95350.72;5037803;28;20198;-63
2022/01/01 09:48:07;;;;;;;4.10;3.60;;;;;;;12.75;58.85;95348.56;5055272;28;20186;-61
2022/01/01 09:50:35;;;;;;;2.50;2.30;;;;;;;12.64;58.16;95347.50;5055161;28;20189;-63
2022/01/01 09:53:02;;;;;;;2.83;2.63;;;;;;;12.53;58.66;95345.28;5037610;28;20606;-63
2022/01/01 09:55:29;;;;;;;3.85;3.00;;;;;;;12.46;58.94;95353.41;5055083;28;20189;-61
2022/01/01 09:57:57;;;;;;;3.30;3.00;;;;;;;12.31;58.75;95345.91;5054796;28;20197;-62
2022/01/01 10:00:24;;;;;;;2.70;2.50;;;;;;;12.17;59.15;95337.25;5037002;28;20197;-63
2022/01/01 10:02:51;;;;;;;3.13;2.55;;;;;;;12.10;59.94;95351.72;5054983;28;20193;-60
2022/01/01 10:05:18;;;;;;;2.92;2.63;;;;;;;12.06;59.10;95353.56;5055009;28;20189;-60
2022/01/01 10:07:45;;;;;;;2.97;2.70;;;;;;;12.00;58.29;95355.00;5054836;28;20218;-61
2022/01/01 10:10:20;;;;;;;3.50;3.20;;;;;;;11.87;59.05;95353.44;5037622;28;20197;-62
2022/01/01 10:12:46;;;;;;;2.85;2.65;;;;;;;11.79;59.69;95355.97;5054891;28;20205;-62
2022/01/01 10:15:15;;;;;;;3.42;2.90;;;;;;;11.69;59.50;95367.56;5054621;28;20244;-61
2022/01/01 10:17:42;;;;;;;3.47;3.17;;;;;;;11.63;59.68;95357.94;5037535;28;20541;-63
2022/01/01 10:20:10;;;;;;;3.20;2.90;;;;;;;11.68;59.87;95365.94;5054941;28;20190;-62
2022/01/01 10:22:38;;;;;;;3.35;3.05;;;;;;;11.74;59.54;95364.53;5054859;28;20182;-64
2022/01/01 10:27:54;;;;;;;4.20;3.80;;;;;;;11.74;59.60;95356.25;5054430;28;20184;-62
2022/01/01 10:30:25;;;;;;;4.22;3.83;;;;;;;11.74;59.59;95345.19;5054910;28;20186;-62
2022/01/01 10:33:03;;;;;;;3.58;3.30;;;;;;;11.71;59.26;95351.44;5037214;28;20221;-64
2022/01/01 10:35:35;;;;;;;3.97;3.63;;;;;;;11.69;59.31;95351.00;5038000;28;20201;-62
2022/01/01 10:38:05;;;;;;;3.78;3.47;;;;;;;11.71;59.47;95350.63;5054736;28;20193;-63
2022/01/01 10:40:32;;;;;;;3.55;3.25;;;;;;;11.69;59.25;95348.22;5037308;28;20255;-65
2022/01/01 10:42:59;;;;;;;4.75;3.95;;;;;;;11.74;59.39;95336.91;5054445;28;20190;-63
2022/01/01 10:45:38;;;;;;;4.18;3.85;;;;;;;11.82;59.60;95330.41;5054871;28;20178;-63
2022/01/01 10:48:20;;;;;;;4.93;4.10;;;;;;;11.91;59.48;95326.69;5037417;28;20205;-63
2022/01/01 10:50:48;;;;;;;4.30;3.80;;;;;;;12.01;58.95;95328.94;5054719;28;20196;-64
2022/01/01 10:53:15;;;;;;;4.55;4.15;;;;;;;12.03;59.22;95326.63;5054608;28;20219;-64
2022/01/01 10:55:43;;;;;;;4.57;4.18;;;;;;;12.10;59.14;95326.03;5037225;28;20204;-63
2022/01/01 10:58:10;;;;;;;4.28;3.95;;;;;;;12.17;59.26;95326.22;5037070;28;20198;-63
2022/01/01 11:00:43;;;;;;;4.45;3.70;;;;;;;12.21;58.86;95319.59;5036410;28;20212;-63
2022/01/01 11:03:10;;;;;;;3.90;3.60;;;;;;;12.27;58.74;95329.25;5054585;28;20193;-64
2022/01/01 11:05:38;;;;;;;4.93;3.60;;;;;;;12.29;58.54;95323.34;5054528;28;20208;-63
2022/01/01 11:08:07;;;;;;;3.63;3.33;;;;;;;12.35;57.27;95321.91;5037131;28;20225;-63
2022/01/01 11:10:35;;;;;;;3.17;2.97;;;;;;;12.41;55.72;95323.22;5038217;28;20213;-64
2022/01/01 11:13:04;;;;;;;4.22;3.45;;;;;;;12.43;55.07;95312.63;5040589;28;20213;-63
2022/01/01 11:15:32;;;;;;;3.50;3.20;;;;;;;12.55;54.13;95316.44;5057782;28;20234;-63
2022/01/01 11:18:01;;;;;;;3.70;3.40;;;;;;;12.60;54.30;95322.50;5040198;28;20229;-63
2022/01/01 11:20:33;;;;;;;3.97;3.50;;;;;;;12.58;54.70;95324.81;5040422;28;20280;-64
2022/01/01 11:23:04;;;;;;;3.75;3.38;;;;;;;12.50;54.45;95310.03;5057759;28;20182;-63
2022/01/01 11:25:32;;;;;;;3.92;3.63;;;;;;;12.39;54.72;95308.16;5040480;28;20205;-63
2022/01/01 11:28:00;;;;;;;3.90;3.60;;;;;;;12.26;54.61;95307.44;5040405;28;20204;-64
2022/01/01 11:30:29;;;;;;;4.32;3.80;;;;;;;12.15;54.92;95315.47;5057695;28;20265;-64
2022/01/01 11:33:01;;;;;;;4.20;3.85;;;;;;;12.09;55.83;95322.47;5057248;28;20198;-64